Time;durP1;ratioP1;P1;durP2;ratioP2;P2;SDS_P1;SDS_P2;PMS_P1;PMS_P2;Temp;Humidity;BMP_temperature;BMP_pressure;BME280_temperature;BME280_humidity;BME280_pressure;Samples;Min_cycle;Max_cycle;Signal;HPM_P1;HPM_P2
2021/10/09 00:03:18;;;;;;;13.70;9.00;;;;;;;4.28;60.12;101329.87;477674;1190;141279;-62
2021/10/09 00:13:25;;;;;;;12.90;7.50;;;;;;;4.29;60.58;101328.29;464760;1183;140246;-61
2021/10/09 00:23:31;;;;;;;12.30;6.90;;;;;;;4.08;60.27;101320.69;470283;1190;141289;-61
2021/10/09 00:33:37;;;;;;;12.70;8.40;;;;;;;3.90;60.87;101330.55;470803;1190;140381;-61
2021/10/09 00:43:43;;;;;;;13.90;9.40;;;;;;;3.75;60.98;101326.00;477689;1190;140610;-61
2021/10/09 00:53:50;;;;;;;11.80;8.00;;;;;;;3.62;61.52;101316.05;477106;1190;141283;-61
2021/10/09 01:03:58;;;;;;;11.60;8.30;;;;;;;3.66;61.35;101323.48;476174;1190;141482;-60
2021/10/09 01:14:04;;;;;;;12.10;8.30;;;;;;;3.73;61.35;101327.21;468637;1187;140764;-61
2021/10/09 01:24:10;;;;;;;11.80;8.60;;;;;;;3.66;61.61;101318.27;477108;1190;145269;-62
2021/10/09 01:34:21;;;;;;;10.00;7.40;;;;;;;3.48;61.73;101316.33;477925;1190;141819;-62
2021/10/09 01:44:28;;;;;;;10.80;7.80;;;;;;;3.32;62.05;101320.74;472202;1190;144188;-61
2021/10/09 01:54:34;;;;;;;12.50;8.20;;;;;;;3.24;62.25;101321.84;468416;1190;142218;-61
2021/10/09 02:04:41;;;;;;;13.90;9.50;;;;;;;3.11;62.43;101319.48;477890;1190;139990;-61
2021/10/09 02:14:51;;;;;;;12.60;7.70;;;;;;;3.23;62.67;101318.90;477050;1190;141475;-61
2021/10/09 02:25:12;;;;;;;14.60;8.50;;;;;;;3.38;62.39;101313.44;477876;1190;141100;-61
2021/10/09 02:35:18;;;;;;;11.70;7.70;;;;;;;3.42;62.47;101316.36;475256;1190;141273;-61
2021/10/09 02:45:24;;;;;;;15.40;9.20;;;;;;;3.33;62.52;101311.57;465717;1190;141114;-60
2021/10/09 02:55:30;;;;;;;13.60;8.40;;;;;;;3.14;62.94;101310.64;474946;1190;141609;-60
2021/10/09 03:05:36;;;;;;;13.00;9.30;;;;;;;2.91;63.30;101313.34;477000;1190;142642;-60
2021/10/09 03:15:42;;;;;;;14.50;8.30;;;;;;;2.79;63.63;101317.39;477960;1190;140234;-61
2021/10/09 03:25:48;;;;;;;12.00;8.50;;;;;;;2.79;64.07;101319.80;477829;1190;142222;-60
2021/10/09 03:35:53;;;;;;;12.90;9.20;;;;;;;2.95;63.90;101322.49;475692;1190;141525;-62
2021/10/09 03:46:03;;;;;;;11.60;8.80;;;;;;;2.95;64.21;101315.23;477889;1190;142137;-62
2021/10/09 03:56:09;;;;;;;11.60;9.00;;;;;;;2.79;64.46;101317.55;477200;1192;140594;-62
2021/10/09 04:06:15;;;;;;;15.20;9.90;;;;;;;2.65;64.86;101321.07;477960;1190;141498;-60
2021/10/09 04:16:20;;;;;;;14.60;8.60;;;;;;;2.55;65.03;101326.81;474153;1190;141887;-60
2021/10/09 04:26:26;;;;;;;11.20;9.10;;;;;;;2.62;65.36;101330.58;469904;1190;144211;-61
2021/10/09 04:36:32;;;;;;;16.00;10.10;;;;;;;2.66;65.62;101333.52;461229;1190;140838;-59
2021/10/09 04:46:38;;;;;;;13.30;9.20;;;;;;;2.58;65.47;101340.11;475396;1190;141225;-61
2021/10/09 04:56:44;;;;;;;11.70;9.70;;;;;;;2.45;65.95;101343.27;477028;1190;140967;-61
2021/10/09 05:06:50;;;;;;;19.70;10.30;;;;;;;2.43;66.08;101340.84;477893;1190;142221;-61
2021/10/09 05:16:55;;;;;;;14.60;8.80;;;;;;;2.56;66.20;101339.25;477865;1190;145577;-61
2021/10/09 05:27:01;;;;;;;12.60;8.90;;;;;;;2.77;65.91;101340.90;467913;1187;140808;-61
2021/10/09 05:37:07;;;;;;;11.60;9.40;;;;;;;2.95;65.59;101338.95;474096;1183;140733;-60
2021/10/09 05:47:13;;;;;;;12.60;9.50;;;;;;;3.35;65.27;101336.48;474526;1175;141051;-59
2021/10/09 05:57:27;;;;;;;10.10;9.10;;;;;;;6.71;63.41;101340.50;473212;1191;141287;-61
2021/10/09 06:59:32;;;;;;;9.20;8.30;;;;;;;27.43;33.16;101333.59;477059;1190;141024;-58
2021/10/09 07:09:38;;;;;;;10.10;9.10;;;;;;;28.47;30.71;101341.73;477719;1190;141302;-57
2021/10/09 07:19:44;;;;;;;9.80;8.80;;;;;;;29.66;28.91;101348.23;477765;1190;141648;-57
2021/10/09 07:29:49;;;;;;;10.70;8.60;;;;;;;31.32;26.75;101356.44;476855;1190;143961;-57
2021/10/09 07:39:55;;;;;;;9.20;7.70;;;;;;;32.37;25.38;101360.33;477820;1183;142215;-58
2021/10/09 07:50:02;;;;;;;8.30;6.60;;;;;;;34.19;23.27;101355.97;477777;1190;140599;-58
2021/10/09 08:00:10;;;;;;;6.80;6.30;;;;;;;33.95;21.92;101364.08;476981;1190;141180;-58
2021/10/09 08:10:16;;;;;;;8.10;7.30;;;;;;;34.36;21.27;101368.47;477912;1190;142571;-58
2021/10/09 08:20:23;;;;;;;6.00;5.50;;;;;;;34.51;20.32;101373.30;473277;1190;141968;-57
2021/10/09 08:40:53;;;;;;;5.90;5.40;;;;;;;34.54;19.39;101371.73;465280;1190;142460;-58
2021/10/09 08:50:59;;;;;;;5.00;4.60;;;;;;;34.93;18.53;101367.24;477103;1190;142003;-57
2021/10/09 09:01:10;;;;;;;7.80;4.50;;;;;;;32.98;18.22;101366.84;461366;1190;141317;-58
2021/10/09 09:42:33;;;;;;;5.10;3.70;;;;;;;14.53;29.33;101389.23;477393;1190;211585;-58
2021/10/09 09:52:40;;;;;;;4.00;3.20;;;;;;;13.44;30.72;101382.59;477892;1190;143218;-58
2021/10/09 10:02:53;;;;;;;5.50;3.70;;;;;;;12.86;31.97;101388.39;476567;1190;141631;-57
2021/10/09 10:13:00;;;;;;;7.00;3.20;;;;;;;12.21;32.81;101385.04;466765;1190;141181;-58
2021/10/09 10:23:05;;;;;;;3.80;3.50;;;;;;;11.67;33.66;101382.44;477854;1190;141717;-58
2021/10/09 10:33:39;;;;;;;5.40;3.50;;;;;;;11.37;34.48;101373.48;477140;1190;141301;-58
2021/10/09 10:43:48;;;;;;;4.70;4.30;;;;;;;11.14;35.40;101370.84;464647;1190;141029;-57
2021/10/09 11:04:49;;;;;;;5.60;4.50;;;;;;;10.90;36.69;101358.23;477699;1190;142021;-57
2021/10/09 11:15:05;;;;;;;4.80;3.70;;;;;;;10.92;37.14;101347.65;476990;1190;143462;-58
2021/10/09 11:25:20;;;;;;;3.60;3.30;;;;;;;10.97;37.27;101335.55;477832;1190;144769;-58
2021/10/09 11:35:35;;;;;;;7.40;4.60;;;;;;;10.99;37.20;101330.92;476880;1190;145768;-58
2021/10/09 11:45:50;;;;;;;3.70;3.40;;;;;;;11.10;37.11;101324.38;477734;1190;145885;-58
2021/10/09 11:56:02;;;;;;;5.10;3.40;;;;;;;11.04;37.07;101320.89;475235;1190;143044;-58
2021/10/09 12:06:10;;;;;;;4.80;4.40;;;;;;;11.07;37.27;101311.68;477002;1190;142294;-58
2021/10/09 12:16:16;;;;;;;4.40;4.00;;;;;;;11.07;37.38;101307.98;471845;1190;140762;-58
2021/10/09 12:26:24;;;;;;;4.50;4.00;;;;;;;11.04;37.93;101302.15;472801;1190;141765;-57
2021/10/09 12:36:37;;;;;;;5.80;4.40;;;;;;;11.11;38.13;101293.84;476324;1190;141461;-58
2021/10/09 12:46:43;;;;;;;8.00;4.90;;;;;;;11.11;38.09;101285.41;477755;1190;141053;-58
2021/10/09 12:56:50;;;;;;;5.20;4.70;;;;;;;11.17;38.46;101276.24;477050;1190;140766;-57
2021/10/09 13:06:56;;;;;;;6.70;5.00;;;;;;;11.12;38.95;101270.32;467694;1190;141355;-57
2021/10/09 13:17:02;;;;;;;5.40;4.70;;;;;;;11.13;39.06;101265.18;477375;1191;141619;-57
2021/10/09 13:27:07;;;;;;;7.10;4.60;;;;;;;11.15;39.35;101259.30;476972;1190;141573;-58
2021/10/09 13:37:19;;;;;;;5.60;4.90;;;;;;;11.16;39.51;101257.52;475425;1190;141226;-56
2021/10/09 13:47:26;;;;;;;14.80;5.70;;;;;;;11.14;39.84;101253.95;461112;1190;142426;-58
2021/10/09 13:57:32;;;;;;;8.40;5.50;;;;;;;11.07;40.36;101242.28;477891;1190;141598;-57
2021/10/09 14:07:37;;;;;;;8.50;6.50;;;;;;;11.01;40.62;101235.86;477685;1191;144277;-58
2021/10/09 14:17:44;;;;;;;9.50;8.50;;;;;;;10.99;40.62;101231.36;476875;1190;142314;-58
2021/10/09 14:27:50;;;;;;;9.60;5.60;;;;;;;10.95;40.57;101228.36;477843;1190;142017;-58
2021/10/09 14:37:57;;;;;;;6.10;5.40;;;;;;;10.87;40.71;101227.09;475879;1190;143468;-59
2021/10/09 14:48:09;;;;;;;6.20;4.40;;;;;;;10.75;41.18;101221.08;471718;1190;141724;-65
2021/10/09 15:19:22;;;;;;;6.90;5.70;;;;;;;10.23;42.21;101214.39;477302;1190;141024;-65
2021/10/09 15:29:29;;;;;;;5.60;4.90;;;;;;;10.02;42.35;101213.95;477051;1190;141300;-63
2021/10/09 15:39:35;;;;;;;9.00;7.40;;;;;;;9.75;42.92;101212.06;477950;1190;141038;-63
2021/10/09 15:49:41;;;;;;;7.30;6.40;;;;;;;9.45;43.75;101210.64;471326;1190;140504;-62
2021/10/09 15:59:48;;;;;;;12.20;7.30;;;;;;;9.14;44.52;101209.02;471473;1190;141050;-63
2021/10/09 16:09:53;;;;;;;8.30;7.20;;;;;;;8.79;45.42;101204.14;466382;1190;144922;-64
2021/10/09 16:20:01;;;;;;;11.30;8.60;;;;;;;8.44;46.49;101204.13;477900;1190;142080;-64
2021/10/09 16:30:09;;;;;;;23.00;13.50;;;;;;;8.14;47.28;101201.47;475204;1190;141007;-64
2021/10/09 16:40:15;;;;;;;16.70;10.30;;;;;;;7.82;48.21;101205.48;465321;1190;141086;-64
2021/10/09 16:50:20;;;;;;;33.20;17.20;;;;;;;7.50;49.33;101208.02;466309;1190;143218;-62
2021/10/09 17:00:26;;;;;;;37.40;20.10;;;;;;;7.23;50.27;101211.13;466588;1190;143195;-63
2021/10/09 17:10:32;;;;;;;25.40;14.30;;;;;;;7.01;51.11;101213.57;477794;1190;141565;-63
2021/10/09 17:20:38;;;;;;;23.40;14.40;;;;;;;6.82;51.78;101215.73;476817;1190;141578;-63
2021/10/09 17:30:44;;;;;;;22.50;15.20;;;;;;;6.70;52.45;101217.02;477704;1190;141327;-63
2021/10/09 17:40:51;;;;;;;24.30;17.30;;;;;;;6.56;53.00;101223.94;477893;1190;140912;-63
2021/10/09 17:50:58;;;;;;;20.70;15.70;;;;;;;6.41;53.53;101226.69;477095;1190;141299;-63
2021/10/09 18:01:04;;;;;;;24.60;17.80;;;;;;;6.14;54.25;101228.95;470860;1190;141647;-62
2021/10/09 18:11:11;;;;;;;27.90;19.30;;;;;;;5.85;54.96;101228.59;472334;1190;140932;-61
2021/10/09 18:21:17;;;;;;;27.10;18.70;;;;;;;5.73;55.37;101221.84;460368;1190;141379;-59
2021/10/09 18:31:23;;;;;;;24.20;17.40;;;;;;;5.61;55.77;101219.11;464430;1190;140811;-61
2021/10/09 18:41:29;;;;;;;20.60;16.10;;;;;;;5.56;56.04;101216.76;476590;1190;141484;-60
2021/10/09 18:51:35;;;;;;;25.60;17.30;;;;;;;5.54;56.06;101214.70;477758;1190;140815;-61
2021/10/09 19:01:41;;;;;;;21.80;15.10;;;;;;;5.55;56.49;101212.44;477735;1190;141802;-61
2021/10/09 19:11:48;;;;;;;26.50;16.60;;;;;;;5.55;56.41;101209.14;467483;1190;141329;-61
2021/10/09 19:21:54;;;;;;;27.00;17.20;;;;;;;5.48;56.45;101213.77;457367;1190;10001855;-61
2021/10/09 19:32:00;;;;;;;25.80;18.30;;;;;;;5.46;56.85;101217.44;460075;1193;142258;-63
2021/10/09 19:42:07;;;;;;;24.60;17.30;;;;;;;5.44;57.00;101220.23;459549;1192;140835;-63
2021/10/09 19:52:17;;;;;;;26.80;19.20;;;;;;;5.38;57.08;101219.66;460275;1191;142033;-60
2021/10/09 20:02:24;;;;;;;25.80;16.60;;;;;;;5.30;57.40;101222.38;467386;1191;141550;-59
2021/10/09 20:12:42;;;;;;;21.30;16.30;;;;;;;5.26;57.55;101221.06;460273;1191;140792;-61
2021/10/09 20:22:56;;;;;;;24.30;16.80;;;;;;;5.19;57.83;101218.20;477353;1190;141203;-61
2021/10/09 20:33:02;;;;;;;25.90;18.10;;;;;;;5.16;57.70;101209.91;476591;1190;142332;-61
2021/10/09 20:43:08;;;;;;;21.80;15.40;;;;;;;5.15;57.73;101208.03;477406;1190;145964;-61
2021/10/09 20:53:15;;;;;;;22.90;16.20;;;;;;;5.15;58.03;101205.60;462132;1191;140443;-59
2021/10/09 21:03:21;;;;;;;25.50;18.30;;;;;;;5.15;58.08;101207.34;463278;1191;140799;-61
2021/10/09 21:13:51;;;;;;;21.10;14.40;;;;;;;5.15;58.16;101203.34;475656;1178;140677;-59
2021/10/09 21:23:59;;;;;;;22.30;16.10;;;;;;;5.19;58.53;101198.77;476619;1191;142335;-62
2021/10/09 21:34:06;;;;;;;26.50;17.60;;;;;;;5.13;58.63;101190.34;477234;1191;141503;-62
2021/10/09 21:44:12;;;;;;;25.30;17.60;;;;;;;5.00;58.90;101187.42;470793;1190;141690;-60
2021/10/09 21:54:18;;;;;;;21.90;14.80;;;;;;;4.84;59.20;101177.59;467161;1191;210670;-60
2021/10/09 22:35:37;;;;;;;21.50;14.00;;;;;;;4.62;59.81;101162.48;464114;1191;142136;-61
2021/10/09 22:45:54;;;;;;;19.10;13.40;;;;;;;4.58;59.62;101159.23;468030;1190;141262;-61
2021/10/09 22:56:01;;;;;;;22.60;13.50;;;;;;;4.60;59.89;101153.65;465970;1191;141550;-61
2021/10/09 23:06:07;;;;;;;;;;;;;;;4.75;59.69;101150.31;476461;1190;141814;-62
2021/10/09 23:16:14;;;;;;;16.60;13.50;;;;;;;4.77;59.52;101143.69;471068;1190;128822;-61
2021/10/09 23:26:20;;;;;;;16.90;12.10;;;;;;;4.65;59.92;101139.19;467380;1191;141148;-59
2021/10/09 23:36:26;;;;;;;20.60;15.40;;;;;;;4.46;60.32;101136.67;473194;1190;141021;-59
2021/10/09 23:46:32;;;;;;;19.50;14.00;;;;;;;4.31;60.59;101136.17;462938;1190;141584;-59
2021/10/09 23:56:40;;;;;;;17.50;13.50;;;;;;;4.20;60.48;101126.27;460470;1190;140432;-58
